Time;durP1;ratioP1;P1;durP2;ratioP2;P2;SDS_P1;SDS_P2;PMS_P1;PMS_P2;Temp;Humidity;BMP_temperature;BMP_pressure;BME280_temperature;BME280_humidity;BME280_pressure;Samples;Min_cycle;Max_cycle;Signal;HPM_P1;HPM_P2
2021/06/04 00:01:31;;;;;;;22.03;15.07;;;16.30;99.90;;;;;;6295653;22;20257;-77
2021/06/04 00:03:59;;;;;;;19.63;13.93;;;16.30;99.90;;;;;;6295951;22;20188;-78
2021/06/04 00:06:26;;;;;;;23.80;16.60;;;16.30;99.90;;;;;;6294451;22;20761;-78
2021/06/04 00:08:52;;;;;;;21.50;15.73;;;16.20;99.90;;;;;;6296022;22;20196;-78
2021/06/04 00:11:22;;;;;;;20.80;15.27;;;16.20;99.90;;;;;;6299111;22;20207;-78
2021/06/04 00:13:52;;;;;;;20.98;16.25;;;16.20;99.90;;;;;;6294409;22;20161;-77
2021/06/04 00:16:22;;;;;;;24.38;15.02;;;16.20;99.90;;;;;;6295643;22;20168;-78
2021/06/04 00:18:51;;;;;;;21.90;15.23;;;16.20;99.90;;;;;;6295197;22;20156;-78
2021/06/04 00:21:20;;;;;;;18.45;14.68;;;16.20;99.90;;;;;;6295266;22;20180;-78
2021/06/04 00:23:47;;;;;;;19.13;14.93;;;16.20;99.90;;;;;;6295453;22;20196;-78
2021/06/04 00:26:14;;;;;;;16.65;14.25;;;16.10;99.90;;;;;;6295099;22;20491;-78
2021/06/04 00:28:41;;;;;;;18.77;15.67;;;16.10;99.90;;;;;;6294463;22;20267;-78
2021/06/04 00:31:08;;;;;;;24.85;17.50;;;16.10;99.90;;;;;;6295709;22;20176;-78
2021/06/04 00:33:35;;;;;;;23.05;15.88;;;16.10;99.90;;;;;;6295302;22;20169;-79
2021/06/04 00:36:04;;;;;;;20.58;16.23;;;16.10;99.90;;;;;;6294976;22;20176;-78
2021/06/04 00:38:31;;;;;;;21.00;16.33;;;16.00;99.90;;;;;;6295126;22;20218;-79
2021/06/04 00:41:02;;;;;;;27.80;21.20;;;16.00;99.90;;;;;;6294165;22;20167;-77
2021/06/04 00:43:29;;;;;;;24.50;18.03;;;16.00;99.90;;;;;;6295747;22;20184;-78
2021/06/04 00:45:57;;;;;;;28.27;19.37;;;16.00;99.90;;;;;;6294858;22;20168;-78
2021/06/04 00:48:25;;;;;;;23.50;17.17;;;16.00;99.90;;;;;;6294485;22;20179;-78
2021/06/04 00:50:55;;;;;;;24.20;16.47;;;15.90;99.90;;;;;;6295125;22;20185;-78
2021/06/04 00:53:26;;;;;;;26.47;16.43;;;15.90;99.90;;;;;;6295658;22;20273;-78
2021/06/04 00:55:54;;;;;;;23.93;16.40;;;16.00;99.90;;;;;;6294446;22;20179;-79
2021/06/04 00:58:25;;;;;;;29.93;19.07;;;15.90;99.90;;;;;;6295425;22;20172;-78
2021/06/04 01:00:55;;;;;;;30.70;22.97;;;15.90;99.90;;;;;;6295125;22;20164;-78
2021/06/04 01:03:26;;;;;;;25.97;21.47;;;15.90;99.90;;;;;;6294718;22;20677;-78
2021/06/04 01:05:59;;;;;;;27.25;19.30;;;15.90;99.90;;;;;;6295426;22;20218;-78
2021/06/04 01:08:44;;;;;;;25.23;18.13;;;15.90;99.90;;;;;;6294856;22;20172;-77
2021/06/04 01:11:17;;;;;;;22.37;17.00;;;15.90;99.90;;;;;;6294132;22;20168;-77
2021/06/04 01:13:58;;;;;;;20.37;16.30;;;15.90;99.90;;;;;;6295505;22;20483;-78
2021/06/04 01:16:30;;;;;;;23.60;17.03;;;15.90;99.90;;;;;;6294708;22;20870;-82
2021/06/04 01:19:04;;;;;;;18.97;15.87;;;15.90;99.90;;;;;;6294547;22;20460;-78
2021/06/04 01:21:39;;;;;;;23.52;16.75;;;15.80;99.90;;;;;;6294430;22;20484;-82
2021/06/04 01:24:16;;;;;;;23.83;18.83;;;15.80;99.90;;;;;;6293677;22;20188;-79
2021/06/04 01:26:47;;;;;;;22.90;16.80;;;15.80;99.90;;;;;;6293982;22;20168;-78
2021/06/04 01:29:17;;;;;;;21.80;18.27;;;15.80;99.90;;;;;;6293985;22;20168;-79
2021/06/04 01:31:48;;;;;;;23.40;18.30;;;15.80;99.90;;;;;;6293402;22;20172;-79
2021/06/04 01:34:19;;;;;;;22.77;17.63;;;15.80;99.90;;;;;;6294445;22;20179;-79
2021/06/04 01:36:49;;;;;;;30.83;20.20;;;15.70;99.90;;;;;;6294536;22;20172;-77
2021/06/04 01:39:21;;;;;;;28.80;20.03;;;15.80;99.90;;;;;;6295513;22;20172;-77
2021/06/04 01:41:51;;;;;;;27.70;19.30;;;15.70;99.90;;;;;;6295063;22;20167;-76
2021/06/04 01:44:22;;;;;;;25.23;18.70;;;15.70;99.90;;;;;;6293867;22;20993;-75
2021/06/04 01:46:52;;;;;;;24.83;17.10;;;15.70;99.90;;;;;;6295337;22;20749;-77
2021/06/04 01:49:23;;;;;;;20.60;16.53;;;15.70;99.90;;;;;;6294865;22;20593;-77
2021/06/04 01:51:54;;;;;;;17.80;14.10;;;15.70;99.90;;;;;;6294562;22;20168;-77
2021/06/04 01:54:23;;;;;;;18.43;14.63;;;15.60;99.90;;;;;;6294913;22;20196;-77
2021/06/04 01:56:57;;;;;;;17.27;14.23;;;15.60;99.90;;;;;;6294616;22;20171;-78
2021/06/04 01:59:28;;;;;;;20.40;16.33;;;15.60;99.90;;;;;;6293407;22;20628;-78
2021/06/04 02:01:55;;;;;;;25.83;18.73;;;15.60;99.90;;;;;;6294264;22;20221;-77
2021/06/04 02:04:25;;;;;;;23.40;17.23;;;15.60;99.90;;;;;;6294029;22;20191;-77
2021/06/04 02:06:52;;;;;;;28.90;20.43;;;15.50;99.90;;;;;;6294505;22;20532;-78
2021/06/04 02:09:20;;;;;;;26.33;20.77;;;15.50;99.90;;;;;;6295345;22;20180;-77
2021/06/04 02:11:48;;;;;;;23.63;18.37;;;15.50;99.90;;;;;;6294323;22;20591;-78
2021/06/04 02:14:20;;;;;;;25.53;18.57;;;15.50;99.90;;;;;;6294348;22;20245;-78
2021/06/04 02:16:58;;;;;;;24.93;17.80;;;15.50;99.90;;;;;;6294979;22;20495;-78
2021/06/04 02:19:35;;;;;;;21.77;16.87;;;15.50;99.90;;;;;;6294115;22;20455;-78
2021/06/04 02:22:06;;;;;;;21.67;16.73;;;15.40;99.90;;;;;;6294225;22;20221;-78
2021/06/04 02:24:41;;;;;;;20.53;14.77;;;15.40;99.90;;;;;;6294702;22;20519;-78
2021/06/04 02:27:13;;;;;;;20.80;14.33;;;15.40;99.90;;;;;;6293957;22;20156;-78
2021/06/04 02:29:46;;;;;;;19.20;13.67;;;15.40;99.90;;;;;;6294031;22;20165;-78
2021/06/04 02:32:16;;;;;;;18.67;13.10;;;15.30;99.90;;;;;;6294885;22;20864;-78
2021/06/04 02:34:48;;;;;;;21.00;13.67;;;15.30;99.90;;;;;;6293370;22;20772;-78
2021/06/04 02:37:19;;;;;;;27.10;17.27;;;15.30;99.90;;;;;;6295258;22;20167;-77
2021/06/04 02:39:49;;;;;;;29.60;16.87;;;15.20;99.90;;;;;;6294949;22;20172;-78
2021/06/04 02:42:20;;;;;;;29.40;18.73;;;15.20;99.90;;;;;;6293851;22;20199;-78
2021/06/04 02:44:52;;;;;;;26.97;17.00;;;15.20;99.90;;;;;;6293916;22;20646;-78
2021/06/04 02:47:22;;;;;;;25.63;17.20;;;15.20;99.90;;;;;;6293311;22;20169;-78
2021/06/04 02:49:49;;;;;;;25.67;16.93;;;15.30;99.90;;;;;;6294268;22;20176;-78
2021/06/04 02:52:32;;;;;;;23.80;14.87;;;15.30;99.90;;;;;;6294631;22;20179;-79
2021/06/04 02:55:00;;;;;;;30.23;16.83;;;15.30;99.90;;;;;;6293777;22;20174;-78
2021/06/04 02:57:32;;;;;;;29.60;16.77;;;15.30;99.90;;;;;;6296548;22;20179;-78
2021/06/04 03:00:00;;;;;;;29.23;16.87;;;15.30;99.90;;;;;;6296303;22;20164;-79
2021/06/04 03:02:29;;;;;;;27.53;16.73;;;15.30;99.90;;;;;;6296308;22;20164;-78
2021/06/04 03:04:58;;;;;;;24.00;16.53;;;15.30;99.90;;;;;;6296270;22;20266;-79
2021/06/04 03:07:27;;;;;;;22.63;15.33;;;15.30;99.90;;;;;;6296568;22;20573;-78
2021/06/04 03:09:56;;;;;;;22.80;16.27;;;15.30;99.90;;;;;;6295807;22;20263;-78
2021/06/04 03:12:26;;;;;;;29.73;18.13;;;15.20;99.90;;;;;;6295443;22;20202;-78
2021/06/04 03:14:57;;;;;;;27.40;16.80;;;15.20;99.90;;;;;;6296337;22;20550;-78
2021/06/04 03:17:28;;;;;;;29.57;18.27;;;15.20;99.90;;;;;;6295295;22;20908;-76
2021/06/04 03:19:55;;;;;;;27.63;18.97;;;15.20;99.90;;;;;;6295938;22;20172;-79
2021/06/04 03:22:26;;;;;;;26.60;17.47;;;15.20;99.90;;;;;;6296689;22;20172;-78
2021/06/04 03:24:53;;;;;;;34.67;19.10;;;15.20;99.90;;;;;;6295218;22;20724;-78
2021/06/04 03:27:21;;;;;;;28.90;19.83;;;15.20;99.90;;;;;;6296592;22;20875;-78
2021/06/04 03:29:48;;;;;;;31.70;20.13;;;15.20;99.90;;;;;;6295007;22;20164;-79
2021/06/04 03:32:15;;;;;;;30.57;19.00;;;15.20;99.90;;;;;;6296613;22;20176;-79
2021/06/04 03:34:46;;;;;;;30.17;19.93;;;15.20;99.90;;;;;;6296707;22;20179;-79
2021/06/04 03:37:14;;;;;;;34.10;19.07;;;15.20;99.90;;;;;;6295472;22;20464;-77
2021/06/04 03:39:43;;;;;;;27.93;18.30;;;15.20;99.90;;;;;;6296395;22;20173;-78
2021/06/04 03:42:14;;;;;;;38.83;22.23;;;15.20;99.90;;;;;;6296346;22;20178;-77
2021/06/04 03:44:43;;;;;;;27.53;19.00;;;15.30;99.90;;;;;;6295030;22;20642;-77
2021/06/04 03:47:11;;;;;;;23.57;16.53;;;15.30;99.90;;;;;;6295292;22;20172;-79
2021/06/04 03:49:38;;;;;;;24.93;17.67;;;15.30;99.90;;;;;;6295930;22;20565;-78
2021/06/04 03:52:08;;;;;;;38.07;20.90;;;15.30;99.90;;;;;;6294849;22;20176;-78
2021/06/04 03:54:38;;;;;;;30.87;19.10;;;15.40;99.90;;;;;;6295765;22;20207;-78
2021/06/04 03:57:07;;;;;;;31.00;19.83;;;15.40;99.90;;;;;;6295920;22;20179;-78
2021/06/04 03:59:34;;;;;;;27.90;18.53;;;15.40;99.90;;;;;;6294876;22;20179;-77
2021/06/04 04:02:03;;;;;;;29.67;20.03;;;15.50;99.90;;;;;;6295050;22;20168;-78
2021/06/04 04:04:29;;;;;;;38.27;23.57;;;15.50;99.90;;;;;;6295819;22;20196;-82
2021/06/04 04:06:56;;;;;;;34.27;22.77;;;15.60;99.90;;;;;;6294937;22;20235;-77
2021/06/04 04:09:24;;;;;;;33.00;24.50;;;15.70;99.90;;;;;;6294763;22;20172;-80
2021/06/04 04:11:52;;;;;;;34.30;23.63;;;15.70;99.90;;;;;;6294706;22;20176;-79
2021/06/04 04:14:19;;;;;;;36.13;23.47;;;15.80;99.90;;;;;;6296176;22;20183;-78
2021/06/04 04:16:45;;;;;;;28.67;20.77;;;15.90;99.90;;;;;;6295251;22;20172;-79
2021/06/04 04:19:12;;;;;;;26.40;20.70;;;16.00;99.90;;;;;;6294896;22;20164;-79
2021/06/04 04:21:40;;;;;;;27.03;20.13;;;16.10;99.90;;;;;;6295263;22;20175;-79
2021/06/04 04:24:11;;;;;;;30.53;22.70;;;16.20;99.90;;;;;;6295247;22;20698;-79
2021/06/04 04:26:40;;;;;;;29.20;20.97;;;16.20;99.90;;;;;;6294407;22;20563;-77
2021/06/04 04:29:07;;;;;;;33.17;21.63;;;16.30;99.90;;;;;;6295047;22;20176;-77
2021/06/04 04:31:38;;;;;;;25.63;19.73;;;16.40;99.90;;;;;;6295683;22;20173;-79
2021/06/04 04:34:06;;;;;;;21.60;18.23;;;16.40;99.90;;;;;;6293787;22;20164;-77
2021/06/04 04:36:38;;;;;;;22.20;18.17;;;16.50;99.90;;;;;;6294928;22;20191;-78
2021/06/04 04:39:07;;;;;;;31.07;19.93;;;16.60;99.90;;;;;;6295174;22;20164;-79
2021/06/04 04:41:33;;;;;;;28.23;21.00;;;16.60;99.90;;;;;;6295013;22;20176;-80
2021/06/04 04:44:01;;;;;;;23.07;18.27;;;16.70;99.90;;;;;;6294327;22;20241;-79
2021/06/04 04:46:29;;;;;;;24.17;18.77;;;16.70;99.90;;;;;;6295442;22;20171;-76
2021/06/04 04:48:56;;;;;;;22.57;17.57;;;16.80;99.90;;;;;;6294753;22;20871;-79
2021/06/04 04:51:27;;;;;;;25.25;17.50;;;16.90;99.90;;;;;;6295828;22;20230;-78
2021/06/04 04:53:53;;;;;;;26.85;18.52;;;17.00;99.90;;;;;;6294496;22;20200;-75
2021/06/04 04:56:20;;;;;;;20.77;16.27;;;17.10;99.90;;;;;;6294546;22;20172;-78
2021/06/04 04:58:47;;;;;;;23.95;17.45;;;17.20;99.90;;;;;;6295950;22;20237;-77
2021/06/04 05:01:15;;;;;;;23.33;19.60;;;17.30;99.90;;;;;;6294820;22;20168;-80
2021/06/04 05:03:42;;;;;;;25.85;18.83;;;17.30;99.90;;;;;;6294630;22;21020;-79
2021/06/04 05:06:10;;;;;;;24.95;18.42;;;17.40;99.90;;;;;;6294860;22;20191;-77
2021/06/04 05:08:37;;;;;;;24.13;18.13;;;17.50;99.90;;;;;;6294467;22;20176;-76
2021/06/04 05:11:04;;;;;;;23.85;17.98;;;17.60;99.90;;;;;;6294914;22;20705;-78
2021/06/04 05:13:31;;;;;;;26.38;19.50;;;17.80;99.90;;;;;;6294758;22;20255;-76
2021/06/04 05:15:59;;;;;;;26.73;20.75;;;18.20;99.90;;;;;;6293075;22;20175;-78
2021/06/04 05:18:27;;;;;;;32.15;19.10;;;18.70;99.90;;;;;;6294059;22;20182;-79
2021/06/04 05:20:53;;;;;;;28.05;18.02;;;19.10;99.90;;;;;;6295129;22;20500;-79
2021/06/04 05:23:20;;;;;;;24.63;16.88;;;19.60;99.90;;;;;;6294300;22;20195;-80
2021/06/04 05:25:49;;;;;;;27.50;17.55;;;19.80;99.90;;;;;;6293992;22;20932;-78
2021/06/04 05:28:20;;;;;;;25.95;16.73;;;19.80;99.90;;;;;;6294207;22;20164;-77
2021/06/04 05:30:48;;;;;;;24.63;17.05;;;19.90;99.90;;;;;;6294448;22;20577;-77
2021/06/04 05:33:17;;;;;;;23.02;15.68;;;19.90;99.90;;;;;;6294393;22;20169;-77
2021/06/04 05:35:45;;;;;;;31.60;18.15;;;20.00;99.90;;;;;;6295361;22;20171;-78
2021/06/04 05:38:11;;;;;;;30.17;19.10;;;20.20;99.90;;;;;;6293307;22;20176;-79
2021/06/04 05:40:41;;;;;;;24.35;16.77;;;20.30;99.90;;;;;;6294290;22;20176;-80
2021/06/04 05:43:11;;;;;;;19.92;13.30;;;20.20;99.90;;;;;;6293513;22;20556;-78
2021/06/04 05:45:43;;;;;;;17.88;10.85;;;20.00;99.90;;;;;;6294755;22;20305;-78
2021/06/04 05:48:10;;;;;;;13.32;8.90;;;19.90;99.90;;;;;;6294353;22;20190;-80
2021/06/04 05:50:40;;;;;;;19.83;10.77;;;19.70;99.90;;;;;;6294058;22;20180;-79
2021/06/04 05:53:10;;;;;;;16.58;10.40;;;19.70;99.90;;;;;;6293500;22;20285;-80
2021/06/04 05:55:37;;;;;;;13.82;8.95;;;19.80;99.90;;;;;;6293557;22;20198;-80
2021/06/04 05:58:04;;;;;;;13.63;8.55;;;20.10;99.90;;;;;;6292912;22;20183;-80
2021/06/04 06:00:35;;;;;;;12.70;8.30;;;20.40;99.90;;;;;;6294180;22;20176;-80
2021/06/04 06:03:04;;;;;;;12.93;8.15;;;20.70;99.90;;;;;;6293784;22;20168;-79
2021/06/04 06:05:31;;;;;;;11.73;8.77;;;21.00;99.90;;;;;;6293536;22;20183;-80
2021/06/04 06:07:57;;;;;;;14.40;9.18;;;21.30;99.90;;;;;;6293722;22;20167;-78
2021/06/04 06:10:26;;;;;;;12.68;9.10;;;21.30;99.90;;;;;;6293798;22;20184;-79
2021/06/04 06:12:54;;;;;;;17.80;10.98;;;21.30;99.90;;;;;;6292831;22;20191;-79
2021/06/04 06:15:22;;;;;;;11.70;10.27;;;21.30;99.90;;;;;;6294287;22;20183;-80
2021/06/04 06:17:48;;;;;;;16.35;9.82;;;21.40;99.90;;;;;;6293960;22;20176;-79
2021/06/04 06:20:18;;;;;;;13.18;9.68;;;21.60;99.90;;;;;;6292546;22;20168;-80
2021/06/04 06:22:45;;;;;;;12.25;9.20;;;21.80;99.90;;;;;;6293933;22;20172;-80
2021/06/04 06:25:15;;;;;;;13.25;9.00;;;22.10;99.90;;;;;;6293476;22;20195;-79
2021/06/04 06:27:43;;;;;;;12.27;8.77;;;22.30;99.90;;;;;;6292538;22;20164;-80
2021/06/04 06:30:14;;;;;;;15.88;10.57;;;22.30;99.90;;;;;;6294995;22;20172;-80
2021/06/04 06:32:40;;;;;;;14.05;9.20;;;22.40;99.90;;;;;;6294507;22;20520;-80
2021/06/04 06:35:08;;;;;;;13.93;8.15;;;22.60;99.90;;;;;;6295613;22;20187;-79
2021/06/04 06:37:34;;;;;;;14.80;8.05;;;22.80;99.90;;;;;;6294567;22;20183;-80
2021/06/04 06:40:00;;;;;;;12.55;6.82;;;23.10;99.90;;;;;;6294698;22;20229;-81
2021/06/04 06:42:27;;;;;;;8.68;5.85;;;23.30;99.90;;;;;;6295444;22;20526;-80
2021/06/04 06:44:55;;;;;;;10.07;6.03;;;23.60;99.90;;;;;;6294443;22;20196;-78
2021/06/04 06:50:55;;;;;;;8.02;5.72;;;23.80;99.90;;;;;;6042062;23;20299;-78
2021/06/04 06:53:24;;;;;;;9.68;6.28;;;24.00;99.90;;;;;;6295831;22;20200;-80
2021/06/04 06:55:51;;;;;;;8.85;6.32;;;24.30;99.90;;;;;;6295108;22;20172;-80
2021/06/04 06:58:20;;;;;;;10.38;6.13;;;24.40;99.90;;;;;;6295628;22;20176;-79
2021/06/04 07:00:50;;;;;;;10.38;6.60;;;24.50;99.90;;;;;;6294549;22;20190;-79
2021/06/04 07:03:23;;;;;;;9.93;5.25;;;24.40;99.90;;;;;;6296027;22;20179;-79
2021/06/04 07:05:49;;;;;;;9.93;5.40;;;24.50;99.90;;;;;;6295265;22;20251;-79
2021/06/04 07:08:15;;;;;;;10.40;6.22;;;24.70;99.90;;;;;;6288627;22;20172;-81
2021/06/04 07:10:42;;;;;;;10.15;6.07;;;24.80;99.90;;;;;;6295718;22;20550;-80
2021/06/04 07:13:10;;;;;;;9.07;5.55;;;25.00;99.90;;;;;;6295575;22;20172;-80
2021/06/04 07:15:38;;;;;;;7.70;5.43;;;25.00;99.90;;;;;;6294928;22;20237;-79
2021/06/04 07:18:08;;;;;;;10.85;6.00;;;25.10;99.90;;;;;;6295851;22;20176;-80
2021/06/04 07:20:36;;;;;;;11.15;6.00;;;25.30;99.90;;;;;;6295745;22;20468;-78
2021/06/04 07:23:05;;;;;;;11.88;6.68;;;25.40;99.90;;;;;;6294406;22;20175;-79
2021/06/04 07:25:33;;;;;;;11.77;6.10;;;25.50;99.90;;;;;;6295089;22;20172;-78
2021/06/04 07:28:00;;;;;;;14.95;6.78;;;25.50;99.90;;;;;;6294313;22;20901;-78
2021/06/04 07:30:30;;;;;;;10.55;5.80;;;25.60;99.90;;;;;;6293905;22;20202;-77
2021/06/04 07:32:57;;;;;;;10.80;5.63;;;25.70;99.90;;;;;;6294840;22;20203;-80
2021/06/04 07:35:26;;;;;;;10.45;6.15;;;25.70;99.90;;;;;;6294943;22;20168;-80
2021/06/04 07:37:52;;;;;;;12.15;5.90;;;25.80;99.90;;;;;;6294377;22;20238;-77
2021/06/04 07:40:22;;;;;;;11.05;6.25;;;25.90;99.90;;;;;;6295715;22;20245;-79
2021/06/04 07:42:50;;;;;;;7.80;5.30;;;26.00;99.90;;;;;;6294268;22;20655;-80
2021/06/04 07:45:18;;;;;;;10.13;5.53;;;26.00;99.90;;;;;;6295313;22;20269;-78
2021/06/04 07:47:46;;;;;;;7.60;5.20;;;26.30;99.90;;;;;;6294536;22;20175;-81
2021/06/04 07:50:13;;;;;;;9.25;5.40;;;26.50;99.90;;;;;;6294932;22;20234;-80
2021/06/04 07:52:42;;;;;;;9.13;4.70;;;26.50;99.90;;;;;;6295021;22;20204;-79
2021/06/04 07:55:11;;;;;;;7.47;5.53;;;26.70;99.90;;;;;;6295073;22;20168;-80
2021/06/04 07:57:38;;;;;;;7.68;4.97;;;26.80;99.90;;;;;;6294342;22;20172;-79
2021/06/04 08:00:08;;;;;;;8.63;5.20;;;26.70;99.90;;;;;;6294693;22;20178;-79
2021/06/04 08:02:34;;;;;;;9.55;5.32;;;26.80;99.90;;;;;;6294955;22;20164;-81
2021/06/04 08:05:03;;;;;;;10.30;6.00;;;26.80;99.90;;;;;;6293672;22;20608;-80
2021/06/04 08:07:29;;;;;;;8.27;5.07;;;26.90;99.90;;;;;;6295316;22;20191;-78
2021/06/04 08:09:57;;;;;;;6.97;5.45;;;27.00;99.90;;;;;;6295260;22;20172;-77
2021/06/04 08:12:30;;;;;;;8.88;5.38;;;27.00;99.90;;;;;;6294032;22;20229;-79
2021/06/04 08:14:57;;;;;;;10.32;6.63;;;26.80;99.90;;;;;;6295037;22;20164;-80
2021/06/04 08:17:24;;;;;;;8.80;5.47;;;26.60;99.90;;;;;;6267947;22;20179;-78
2021/06/04 08:19:51;;;;;;;6.28;5.57;;;26.60;99.90;;;;;;6293582;22;20164;-79
2021/06/04 08:22:17;;;;;;;7.55;5.57;;;26.70;99.90;;;;;;6294649;22;20569;-79
2021/06/04 08:24:44;;;;;;;8.95;5.72;;;26.80;99.90;;;;;;6294616;22;20196;-78
2021/06/04 08:27:14;;;;;;;10.13;6.15;;;27.00;99.90;;;;;;6294578;22;20180;-78
2021/06/04 08:29:43;;;;;;;6.47;5.13;;;27.30;99.90;;;;;;6294341;22;20175;-76
2021/06/04 08:32:11;;;;;;;7.43;5.47;;;27.40;99.90;;;;;;6294304;22;20761;-78
2021/06/04 08:34:38;;;;;;;10.27;5.13;;;27.70;99.90;;;;;;6294574;22;20884;-79
2021/06/04 08:37:05;;;;;;;8.52;5.88;;;27.80;99.90;;;;;;6294693;22;20180;-78
2021/06/04 08:39:32;;;;;;;8.63;4.90;;;27.90;99.90;;;;;;6293502;22;20168;-78
2021/06/04 08:42:08;;;;;;;7.70;5.78;;;27.70;99.90;;;;;;6295096;22;20204;-79
2021/06/04 08:44:47;;;;;;;8.05;5.32;;;28.00;99.90;;;;;;6295128;22;20203;-79
2021/06/04 08:47:16;;;;;;;6.82;5.22;;;28.20;99.90;;;;;;6294577;22;20168;-77
2021/06/04 08:49:59;;;;;;;7.90;5.47;;;28.40;99.90;;;;;;6294850;22;20833;-78
2021/06/04 08:52:34;;;;;;;9.13;5.05;;;28.70;99.90;;;;;;6294616;22;20229;-79
2021/06/04 08:55:08;;;;;;;6.78;4.47;;;28.70;99.90;;;;;;6292133;22;20163;-78
2021/06/04 08:57:47;;;;;;;5.88;5.03;;;28.90;99.90;;;;;;6295114;22;20164;-77
2021/06/04 09:00:20;;;;;;;6.82;4.57;;;29.00;99.90;;;;;;6293634;22;20811;-78
2021/06/04 09:02:50;;;;;;;8.68;4.95;;;28.80;99.90;;;;;;6293860;22;20222;-78
2021/06/04 09:05:21;;;;;;;6.43;5.15;;;29.00;99.90;;;;;;6294914;22;20192;-78
2021/06/04 09:07:51;;;;;;;7.07;5.63;;;29.00;99.90;;;;;;6293975;22;20179;-77
2021/06/04 09:10:26;;;;;;;7.80;6.07;;;28.90;99.90;;;;;;6294981;22;20179;-77
2021/06/04 09:12:56;;;;;;;9.77;5.80;;;28.70;99.90;;;;;;6293621;22;20171;-78
2021/06/04 09:15:34;;;;;;;6.85;5.30;;;28.50;99.90;;;;;;6293096;22;20601;-78
2021/06/04 09:18:07;;;;;;;7.22;4.95;;;28.40;99.90;;;;;;6293921;22;20167;-78
2021/06/04 09:20:39;;;;;;;8.38;6.40;;;28.50;99.90;;;;;;6294098;22;20172;-76
2021/06/04 09:23:08;;;;;;;9.57;6.38;;;28.40;99.90;;;;;;6293404;22;20214;-76
2021/06/04 09:25:36;;;;;;;7.28;6.22;;;28.40;99.90;;;;;;6294173;22;20199;-77
2021/06/04 09:28:25;;;;;;;6.88;4.97;;;28.50;99.90;;;;;;6294169;22;20174;-77
2021/06/04 09:30:55;;;;;;;8.63;5.88;;;28.60;99.90;;;;;;6294512;22;20238;-76
2021/06/04 09:33:33;;;;;;;7.80;5.32;;;28.80;99.90;;;;;;6294933;22;20175;-76
2021/06/04 09:36:07;;;;;;;8.05;5.82;;;28.90;99.90;;;;;;6293126;22;20229;-75
2021/06/04 09:38:38;;;;;;;7.43;5.90;;;29.00;99.90;;;;;;6294271;22;20248;-77
2021/06/04 09:41:43;;;;;;;7.85;5.05;;;28.90;99.90;;;;;;6293949;22;20164;-77
2021/06/04 09:44:25;;;;;;;7.93;5.20;;;28.90;99.90;;;;;;6293024;22;20199;-77
2021/06/04 09:46:58;;;;;;;8.07;4.90;;;28.80;99.90;;;;;;6293911;22;20164;-78
2021/06/04 09:49:46;;;;;;;8.82;5.65;;;29.00;99.90;;;;;;6293461;22;20164;-78
2021/06/04 09:52:26;;;;;;;7.20;5.05;;;29.10;99.90;;;;;;6294300;22;20164;-77
2021/06/04 09:55:24;;;;;;;8.07;5.90;;;29.30;99.90;;;;;;6293570;22;20214;-77
2021/06/04 09:58:17;;;;;;;7.07;5.20;;;29.40;99.90;;;;;;6293298;22;20870;-78
2021/06/04 10:00:46;;;;;;;9.02;5.65;;;29.40;99.90;;;;;;6293103;22;20172;-77
2021/06/04 10:03:30;;;;;;;6.80;4.80;;;29.20;99.90;;;;;;6294543;22;20183;-76
2021/06/04 10:06:33;;;;;;;8.95;5.80;;;29.40;99.90;;;;;;6297311;22;20164;-78
2021/06/04 10:09:05;;;;;;;6.57;4.78;;;29.20;99.90;;;;;;6248121;22;20201;-78
2021/06/04 10:11:46;;;;;;;9.80;4.80;;;28.80;99.90;;;;;;6296398;22;20174;-79
2021/06/04 10:14:22;;;;;;;5.03;3.95;;;29.00;99.90;;;;;;6297844;22;20233;-78
2021/06/04 10:17:01;;;;;;;5.78;4.43;;;29.10;99.90;;;;;;6297404;22;20175;-79
2021/06/04 10:19:39;;;;;;;4.35;3.92;;;29.10;99.90;;;;;;6296399;22;20190;-78
2021/06/04 10:22:18;;;;;;;5.90;4.30;;;29.10;99.90;;;;;;6297062;22;20203;-78
2021/06/04 10:24:48;;;;;;;8.82;4.60;;;29.20;99.90;;;;;;6296838;22;20184;-79
2021/06/04 10:27:18;;;;;;;6.03;5.10;;;29.40;99.90;;;;;;6297693;22;20171;-79
2021/06/04 10:29:57;;;;;;;9.75;5.53;;;29.40;99.90;;;;;;6297520;22;20175;-78
2021/06/04 10:32:24;;;;;;;7.07;4.45;;;29.20;99.90;;;;;;6295223;22;20179;-77
2021/06/04 10:35:12;;;;;;;7.97;5.78;;;29.30;99.90;;;;;;6297072;22;20175;-78
2021/06/04 10:37:43;;;;;;;5.38;4.85;;;29.50;99.90;;;;;;6297228;22;20169;-78
2021/06/04 10:40:16;;;;;;;6.85;5.40;;;29.30;99.90;;;;;;6295899;22;20194;-77
2021/06/04 10:43:08;;;;;;;5.72;4.82;;;29.40;99.90;;;;;;6296346;22;20168;-77
2021/06/04 10:45:39;;;;;;;7.82;5.47;;;29.40;99.90;;;;;;6295363;22;20204;-79
2021/06/04 10:48:27;;;;;;;8.43;6.00;;;29.40;99.90;;;;;;6297529;22;20164;-78
2021/06/04 10:50:58;;;;;;;9.70;6.35;;;29.60;99.90;;;;;;6296588;22;20251;-79
2021/06/04 10:53:34;;;;;;;6.35;5.75;;;29.50;99.90;;;;;;6295424;22;20226;-78
2021/06/04 10:56:05;;;;;;;9.75;5.90;;;29.40;99.90;;;;;;6296805;22;20174;-79
2021/06/04 10:58:38;;;;;;;6.32;5.28;;;29.60;99.90;;;;;;6296561;22;20168;-79
2021/06/04 11:01:09;;;;;;;10.20;6.55;;;29.60;99.90;;;;;;6294906;22;20156;-79
2021/06/04 11:03:42;;;;;;;8.63;6.32;;;29.70;99.90;;;;;;6297056;22;20164;-77
2021/06/04 11:06:14;;;;;;;7.60;6.25;;;29.70;99.90;;;;;;6296461;22;20164;-79
2021/06/04 11:08:53;;;;;;;8.55;5.50;;;29.70;99.90;;;;;;6296161;22;20168;-78
2021/06/04 11:11:53;;;;;;;8.77;6.30;;;29.70;99.90;;;;;;6296835;22;20486;-79
2021/06/04 11:14:43;;;;;;;9.20;6.65;;;29.70;99.90;;;;;;6296835;22;20160;-78
2021/06/04 11:17:21;;;;;;;10.45;6.63;;;29.70;99.90;;;;;;6293725;22;20214;-76
2021/06/04 11:19:51;;;;;;;8.68;6.80;;;29.50;99.90;;;;;;6297564;22;20225;-86
2021/06/04 11:22:22;;;;;;;9.50;6.63;;;29.40;99.90;;;;;;6294613;22;20647;-80
2021/06/04 11:24:55;;;;;;;7.05;5.18;;;29.50;99.90;;;;;;6296178;22;20191;-82
2021/06/04 11:27:26;;;;;;;9.02;6.35;;;29.50;99.90;;;;;;6296187;22;20167;-78
2021/06/04 11:29:54;;;;;;;8.80;6.43;;;29.50;99.90;;;;;;6294019;22;20156;-79
2021/06/04 11:32:22;;;;;;;6.63;5.63;;;29.50;99.90;;;;;;6294954;22;20176;-82
2021/06/04 11:34:55;;;;;;;7.00;6.20;;;29.60;99.90;;;;;;6295195;22;20168;-80
2021/06/04 11:37:30;;;;;;;6.45;4.43;;;29.70;99.90;;;;;;6295338;22;20213;-80
2021/06/04 11:40:06;;;;;;;8.18;6.07;;;29.70;99.90;;;;;;6294446;22;20448;-82
2021/06/04 11:42:49;;;;;;;9.35;5.85;;;29.90;99.90;;;;;;6294660;22;20208;-82
2021/06/04 11:45:19;;;;;;;10.38;6.05;;;29.60;99.90;;;;;;6295572;22;20196;-80
2021/06/04 11:47:46;;;;;;;7.05;6.35;;;29.70;99.90;;;;;;6294618;22;20206;-81
2021/06/04 11:50:32;;;;;;;8.45;6.32;;;29.70;99.90;;;;;;6294592;22;20168;-79
2021/06/04 11:53:28;;;;;;;7.20;6.18;;;29.80;99.90;;;;;;6295011;22;20306;-80
2021/06/04 11:55:56;;;;;;;8.95;7.38;;;29.90;99.90;;;;;;6294871;22;20165;-81
2021/06/04 11:58:44;;;;;;;10.63;7.75;;;29.80;99.90;;;;;;6296305;22;20307;-82
2021/06/04 12:01:39;;;;;;;8.07;6.38;;;29.50;99.90;;;;;;6295630;22;20225;-81
2021/06/04 12:04:10;;;;;;;10.35;7.00;;;29.40;99.90;;;;;;6294264;22;20183;-80
2021/06/04 12:06:49;;;;;;;9.63;6.43;;;29.30;99.90;;;;;;6295521;22;20164;-78
2021/06/04 12:09:41;;;;;;;11.68;7.85;;;29.20;99.90;;;;;;6294875;22;20163;-81
2021/06/04 12:12:59;;;;;;;9.75;6.88;;;29.20;99.90;;;;;;6294452;22;20175;-81
2021/06/04 12:15:46;;;;;;;11.10;9.18;;;29.20;99.90;;;;;;6294917;22;20243;-81
2021/06/04 12:18:55;;;;;;;10.27;8.05;;;29.10;99.90;;;;;;6294313;22;20624;-78
2021/06/04 12:21:52;;;;;;;10.40;9.27;;;29.30;99.90;;;;;;6295319;22;20168;-79
2021/06/04 12:24:58;;;;;;;11.77;10.55;;;29.20;99.90;;;;;;6293881;22;20323;-79
2021/06/04 12:28:01;;;;;;;13.93;11.88;;;29.10;99.90;;;;;;6294141;22;20168;-78
2021/06/04 12:31:04;;;;;;;10.75;9.60;;;28.80;99.90;;;;;;6294292;22;20171;-79
2021/06/04 12:33:56;;;;;;;11.13;9.93;;;28.60;99.90;;;;;;6294981;22;20175;-83
2021/06/04 12:37:01;;;;;;;14.65;11.15;;;28.60;99.90;;;;;;6294975;22;20172;-81
2021/06/04 12:40:12;;;;;;;12.25;9.82;;;28.60;99.90;;;;;;6293970;22;20209;-81
2021/06/04 12:42:48;;;;;;;10.45;9.35;;;28.70;99.90;;;;;;6264000;22;20176;-79
2021/06/04 12:45:31;;;;;;;11.27;9.57;;;28.70;99.90;;;;;;6294461;22;20195;-79
2021/06/04 12:48:16;;;;;;;10.35;9.25;;;28.70;99.90;;;;;;6292189;22;20182;-80
2021/06/04 12:50:44;;;;;;;18.70;10.77;;;28.80;99.90;;;;;;6294278;22;20202;-82
2021/06/04 12:53:22;;;;;;;11.93;9.43;;;28.90;99.90;;;;;;6291402;22;20192;-80
2021/06/04 12:55:52;;;;;;;10.90;9.82;;;28.90;99.90;;;;;;6294467;22;20171;-80
2021/06/04 12:58:25;;;;;;;9.45;8.48;;;29.00;99.90;;;;;;6295555;22;20180;-81
2021/06/04 13:00:52;;;;;;;10.18;8.82;;;29.00;99.90;;;;;;6293886;22;20175;-82
2021/06/04 13:03:29;;;;;;;11.68;9.52;;;29.00;99.90;;;;;;6295383;22;20179;-80
2021/06/04 13:05:58;;;;;;;11.25;9.02;;;28.90;99.90;;;;;;6294608;22;20188;-78